createdAt,value
2023-03-26T00:01:51.815Z,6.66
2023-03-26T00:04:19.872Z,6.72
2023-03-26T00:06:49.171Z,6.78
2023-03-26T00:09:17.896Z,6.81
2023-03-26T00:11:48.625Z,6.85
2023-03-26T00:14:18.007Z,6.88
2023-03-26T00:16:47.656Z,6.82
2023-03-26T00:19:15.769Z,6.76
2023-03-26T00:21:43.342Z,6.82
2023-03-26T00:24:16.279Z,6.83
2023-03-26T00:26:45.014Z,6.85
2023-03-26T00:29:14.059Z,6.89
2023-03-26T00:31:46.742Z,6.92
2023-03-26T00:34:18.653Z,6.97
2023-03-26T00:36:47.320Z,6.97
2023-03-26T00:39:15.403Z,6.93
2023-03-26T00:41:43.426Z,6.94
2023-03-26T00:44:11.770Z,6.92
2023-03-26T00:46:39.693Z,6.84
2023-03-26T00:49:11.056Z,6.87
2023-03-26T00:51:39.405Z,6.79
2023-03-26T00:54:09.857Z,6.76
2023-03-26T00:56:39.017Z,6.79
2023-03-26T00:59:06.659Z,6.74
2023-03-26T01:01:34.173Z,6.72
2023-03-26T01:04:31.655Z,6.64
2023-03-26T01:07:03.064Z,6.50
2023-03-26T01:09:35.159Z,6.50
2023-03-26T01:12:05.073Z,6.49
2023-03-26T01:14:32.826Z,6.50
2023-03-26T01:17:03.203Z,6.44
2023-03-26T01:19:52.093Z,6.43
2023-03-26T01:22:22.759Z,6.40
2023-03-26T01:24:56.469Z,6.37
2023-03-26T01:27:35.949Z,6.42
2023-03-26T01:30:07.340Z,6.52
2023-03-26T01:32:58.390Z,6.58
2023-03-26T01:35:35.471Z,6.69
2023-03-26T01:38:11.006Z,6.67
2023-03-26T01:41:00.238Z,6.80
2023-03-26T01:43:36.608Z,6.76
2023-03-26T01:46:08.290Z,6.78
2023-03-26T01:48:47.010Z,6.70
2023-03-26T01:51:26.299Z,6.66
2023-03-26T01:53:55.439Z,6.71
2023-03-26T01:56:33.783Z,6.75
2023-03-26T01:59:16.945Z,6.83
2023-03-26T02:02:12.085Z,6.84
2023-03-26T02:05:22.206Z,6.73
2023-03-26T02:07:58.629Z,6.71
2023-03-26T02:10:29.890Z,6.61
2023-03-26T02:12:58.903Z,6.56
2023-03-26T02:15:26.521Z,6.58
2023-03-26T02:17:59.834Z,6.49
2023-03-26T02:20:30.227Z,6.33
2023-03-26T02:22:58.064Z,6.35
2023-03-26T02:25:26.085Z,6.34
2023-03-26T02:27:54.710Z,6.36
2023-03-26T02:30:29.855Z,6.34
2023-03-26T02:33:00.292Z,6.36
2023-03-26T02:35:36.159Z,6.39
2023-03-26T02:38:04.015Z,6.39
2023-03-26T02:40:31.462Z,6.46
2023-03-26T02:42:59.576Z,6.50
2023-03-26T02:45:32.790Z,6.52
2023-03-26T02:48:06.371Z,6.54
2023-03-26T02:50:46.663Z,6.51
2023-03-26T02:53:30.812Z,6.54
2023-03-26T02:56:17.128Z,6.50
2023-03-26T02:58:58.483Z,6.51
2023-03-26T03:01:26.199Z,6.51
2023-03-26T03:03:55.799Z,6.56
2023-03-26T03:06:38.455Z,6.54
2023-03-26T03:09:08.640Z,6.50
2023-03-26T03:11:37.246Z,6.52
2023-03-26T03:14:06.022Z,6.52
2023-03-26T03:16:34.557Z,6.47
2023-03-26T03:19:10.828Z,6.50
2023-03-26T03:21:40.409Z,6.47
2023-03-26T03:24:09.587Z,6.51
2023-03-26T03:26:42.497Z,6.54
2023-03-26T03:29:28.639Z,6.50
2023-03-26T03:32:00.555Z,6.47
2023-03-26T03:34:43.368Z,6.40
2023-03-26T03:37:11.162Z,6.24
2023-03-26T03:39:51.085Z,6.18
2023-03-26T03:42:21.727Z,6.11
2023-03-26T03:44:51.958Z,6.09
2023-03-26T03:47:39.835Z,6.09
2023-03-26T03:50:09.460Z,6.04
2023-03-26T03:52:39.888Z,6.11
2023-03-26T03:55:07.892Z,6.09
2023-03-26T03:57:43.115Z,6.14
2023-03-26T04:00:16.319Z,6.27
2023-03-26T04:02:46.369Z,6.27
2023-03-26T04:05:15.476Z,6.27
2023-03-26T04:07:49.036Z,6.20
2023-03-26T04:10:22.599Z,6.23
2023-03-26T04:13:25.885Z,6.15
2023-03-26T04:16:11.827Z,6.17
2023-03-26T04:18:40.120Z,6.14
2023-03-26T04:21:16.009Z,6.10
2023-03-26T04:23:45.888Z,6.12
2023-03-26T04:26:33.589Z,6.19
2023-03-26T04:29:13.068Z,6.14
2023-03-26T04:31:43.256Z,6.20
2023-03-26T04:34:24.601Z,6.24
2023-03-26T04:37:26.665Z,6.28
2023-03-26T04:40:12.365Z,6.30
2023-03-26T04:42:50.344Z,6.31
2023-03-26T04:45:40.819Z,6.36
2023-03-26T04:48:14.383Z,6.32
2023-03-26T04:50:43.221Z,6.34
2023-03-26T04:53:17.270Z,6.35
2023-03-26T04:56:58.482Z,6.44
2023-03-26T04:59:43.167Z,6.46
2023-03-26T05:02:14.377Z,6.47
2023-03-26T05:04:53.930Z,6.43
2023-03-26T05:07:24.280Z,6.44
2023-03-26T05:09:57.719Z,6.42
2023-03-26T05:12:42.261Z,6.37
2023-03-26T05:15:15.753Z,6.40
2023-03-26T05:17:52.254Z,6.34
2023-03-26T05:20:30.518Z,6.30
2023-03-26T05:22:58.361Z,6.35
2023-03-26T05:25:37.424Z,6.32
2023-03-26T05:28:11.864Z,6.25
2023-03-26T05:30:48.381Z,6.27
2023-03-26T05:33:16.555Z,6.30
2023-03-26T05:36:03.895Z,6.50
2023-03-26T05:38:34.280Z,6.42
2023-03-26T05:41:06.860Z,6.43
2023-03-26T05:43:36.471Z,6.37
2023-03-26T05:46:13.380Z,6.34
2023-03-26T05:48:41.245Z,6.34
2023-03-26T05:51:09.002Z,6.31
2023-03-26T05:53:41.996Z,6.34
2023-03-26T05:56:10.670Z,6.43
2023-03-26T05:58:57.442Z,6.51
2023-03-26T06:01:45.035Z,6.69
2023-03-26T06:04:13.849Z,6.79
2023-03-26T06:06:47.889Z,6.85
2023-03-26T06:09:15.768Z,6.92
2023-03-26T06:11:43.729Z,6.96
2023-03-26T06:14:11.394Z,7.08
2023-03-26T06:16:44.478Z,7.15
2023-03-26T06:19:22.119Z,7.22
2023-03-26T06:21:57.702Z,7.33
2023-03-26T06:24:45.131Z,7.41
2023-03-26T06:27:31.484Z,7.39
2023-03-26T06:30:26.774Z,7.58
2023-03-26T06:33:06.776Z,7.73
2023-03-26T06:35:43.004Z,7.85
2023-03-26T06:38:11.571Z,7.91
2023-03-26T06:40:39.346Z,7.97
2023-03-26T06:43:20.517Z,8.02
2023-03-26T06:45:52.175Z,8.02
2023-03-26T06:48:52.332Z,8.05
2023-03-26T06:51:22.426Z,7.98
2023-03-26T06:54:16.849Z,7.98
2023-03-26T06:56:45.192Z,8.01
2023-03-26T06:59:39.077Z,7.97
2023-03-26T07:02:25.080Z,7.96
2023-03-26T07:05:11.031Z,7.99
2023-03-26T07:07:57.692Z,8.01
2023-03-26T07:10:43.663Z,8.05
2023-03-26T07:13:29.834Z,8.07
2023-03-26T07:16:23.867Z,8.11
2023-03-26T07:19:23.579Z,8.04
2023-03-26T07:21:52.965Z,8.15
2023-03-26T07:24:39.026Z,8.28
2023-03-26T07:27:28.314Z,8.35
2023-03-26T07:30:09.342Z,8.45
2023-03-26T07:33:18.611Z,8.28
2023-03-26T07:36:08.214Z,8.20
2023-03-26T07:39:10.862Z,8.13
2023-03-26T07:42:24.581Z,8.05
2023-03-26T07:45:27.118Z,8.07
2023-03-26T07:48:28.289Z,8.09
2023-03-26T07:51:18.785Z,8.20
2023-03-26T07:54:10.827Z,8.28
2023-03-26T07:57:12.967Z,8.32
2023-03-26T08:00:05.262Z,8.43
2023-03-26T08:03:15.455Z,8.56
2023-03-26T08:06:22.469Z,8.64
2023-03-26T08:09:12.004Z,8.70
2023-03-26T08:12:04.754Z,8.71
2023-03-26T08:14:47.056Z,8.73
2023-03-26T08:17:34.985Z,8.76
2023-03-26T08:20:10.580Z,8.76
2023-03-26T08:22:43.438Z,8.77
2023-03-26T08:25:24.567Z,8.89
2023-03-26T08:28:12.875Z,8.83
2023-03-26T08:30:40.688Z,8.90
2023-03-26T08:33:22.548Z,8.88
2023-03-26T08:35:50.721Z,8.98
2023-03-26T08:38:20.241Z,9.01
2023-03-26T08:41:19.577Z,9.01
2023-03-26T08:43:50.044Z,8.92
2023-03-26T08:46:55.960Z,8.95
2023-03-26T08:49:44.780Z,9.01
2023-03-26T08:52:24.806Z,9.02
2023-03-26T08:55:03.991Z,9.15
2023-03-26T08:58:09.738Z,9.13
2023-03-26T09:00:57.743Z,9.22
2023-03-26T09:03:31.276Z,9.21
2023-03-26T09:06:37.467Z,9.25
2023-03-26T09:09:19.069Z,9.20
2023-03-26T09:12:20.027Z,9.47
2023-03-26T09:15:07.656Z,9.69
2023-03-26T09:17:37.860Z,9.78
2023-03-26T09:20:25.318Z,10.53
2023-03-26T09:23:15.122Z,11.16
2023-03-26T09:25:57.991Z,11.11
2023-03-26T09:28:56.068Z,11.33
2023-03-26T09:31:32.876Z,11.96
2023-03-26T09:34:28.323Z,12.40
2023-03-26T09:37:18.755Z,13.09
2023-03-26T09:40:15.727Z,14.03
2023-03-26T09:43:19.563Z,14.88
2023-03-26T09:46:19.270Z,14.90
2023-03-26T09:49:24.895Z,15.11
2023-03-26T09:52:23.255Z,15.24
2023-03-26T09:55:20.409Z,15.05
2023-03-26T09:58:11.457Z,14.66
2023-03-26T10:00:53.482Z,14.60
2023-03-26T10:03:32.484Z,14.25
2023-03-26T10:06:15.097Z,14.52
2023-03-26T10:09:15.650Z,14.52
2023-03-26T10:12:01.441Z,14.76
2023-03-26T10:15:01.641Z,14.82
2023-03-26T10:17:45.034Z,14.96
2023-03-26T10:20:50.559Z,15.59
2023-03-26T10:23:31.067Z,15.78
2023-03-26T10:26:25.041Z,15.43
2023-03-26T10:29:17.966Z,15.58
2023-03-26T10:31:51.665Z,15.52
2023-03-26T10:34:37.474Z,15.47
2023-03-26T10:37:19.524Z,15.64
2023-03-26T10:40:10.332Z,16.04
2023-03-26T10:42:53.633Z,15.99
2023-03-26T10:45:42.522Z,16.09
2023-03-26T10:48:24.557Z,15.64
2023-03-26T10:51:13.884Z,15.99
2023-03-26T10:53:50.371Z,15.95
2023-03-26T10:56:28.418Z,15.79
2023-03-26T10:58:57.133Z,15.86
2023-03-26T11:01:32.873Z,16.14
2023-03-26T11:04:11.083Z,15.97
2023-03-26T11:06:51.192Z,15.62
2023-03-26T11:09:44.978Z,15.63
2023-03-26T11:12:26.508Z,15.78
2023-03-26T11:15:13.671Z,16.19
2023-03-26T11:17:53.172Z,15.87
2023-03-26T11:20:24.476Z,16.51
2023-03-26T11:23:12.033Z,16.70
2023-03-26T11:25:57.874Z,16.44
2023-03-26T11:29:31.819Z,16.34
2023-03-26T11:32:21.282Z,16.23
2023-03-26T11:35:08.534Z,15.52
2023-03-26T11:37:42.893Z,15.68
2023-03-26T11:40:51.165Z,16.01
2023-03-26T11:44:25.244Z,16.04
2023-03-26T11:47:01.526Z,16.10
2023-03-26T11:49:29.591Z,16.14
2023-03-26T11:51:57.184Z,16.37
2023-03-26T11:54:24.601Z,16.40
2023-03-26T11:57:05.668Z,16.14
2023-03-26T11:59:56.492Z,15.96
2023-03-26T12:02:39.457Z,15.89
2023-03-26T12:05:29.590Z,15.61
2023-03-26T12:08:02.714Z,15.72
2023-03-26T12:10:41.455Z,15.57
2023-03-26T12:13:22.951Z,15.70
2023-03-26T12:15:50.449Z,15.48
2023-03-26T12:18:25.185Z,15.67
2023-03-26T12:21:17.085Z,15.63
2023-03-26T12:23:51.123Z,15.65
2023-03-26T12:26:36.070Z,15.33
2023-03-26T12:29:11.976Z,15.04
2023-03-26T12:31:55.076Z,14.74
2023-03-26T12:34:35.950Z,14.47
2023-03-26T12:37:05.856Z,14.87
2023-03-26T12:40:10.130Z,14.88
2023-03-26T12:44:44.496Z,14.73
2023-03-26T12:45:38.961Z,14.67
2023-03-26T12:48:08.053Z,14.56
2023-03-26T12:50:57.557Z,14.69
2023-03-26T12:53:48.960Z,14.55
2023-03-26T12:56:36.425Z,14.41
2023-03-26T12:59:46.850Z,14.63
2023-03-26T13:02:33.290Z,14.61
2023-03-26T13:05:30.154Z,14.51
2023-03-26T13:08:03.601Z,14.41
2023-03-26T13:10:58.397Z,14.40
2023-03-26T13:13:36.435Z,14.43
2023-03-26T13:16:53.306Z,14.06
2023-03-26T13:19:23.748Z,14.24
2023-03-26T13:21:58.728Z,13.69
2023-03-26T13:24:34.392Z,12.91
2023-03-26T13:27:09.796Z,12.21
2023-03-26T13:29:57.436Z,11.63
2023-03-26T13:32:52.202Z,11.31
2023-03-26T13:35:47.106Z,11.00
2023-03-26T13:38:36.072Z,10.83
2023-03-26T13:41:34.987Z,10.74
2023-03-26T13:44:08.529Z,10.72
2023-03-26T13:46:43.372Z,10.65
2023-03-26T13:49:15.721Z,10.53
2023-03-26T13:52:05.953Z,10.30
2023-03-26T13:54:44.260Z,10.23
2023-03-26T13:57:14.725Z,9.94
2023-03-26T13:59:57.526Z,9.79
2023-03-26T14:02:36.090Z,9.54
2023-03-26T14:05:06.403Z,9.41
2023-03-26T14:08:02.438Z,9.16
2023-03-26T14:10:40.589Z,9.06
2023-03-26T14:13:21.788Z,9.14
2023-03-26T14:15:49.275Z,9.12
2023-03-26T14:18:16.661Z,9.13
2023-03-26T14:21:15.600Z,9.20
2023-03-26T14:24:02.181Z,9.07
2023-03-26T14:27:05.633Z,8.82
2023-03-26T14:30:07.288Z,8.90
2023-03-26T14:32:53.214Z,8.81
2023-03-26T14:35:47.350Z,8.90
2023-03-26T14:38:38.201Z,8.72
2023-03-26T14:41:24.583Z,8.68
2023-03-26T14:44:24.343Z,8.52
2023-03-26T14:47:15.094Z,8.42
2023-03-26T14:50:04.088Z,8.29
2023-03-26T14:52:48.065Z,8.31
2023-03-26T14:55:52.305Z,8.35
2023-03-26T14:58:37.845Z,8.43
2023-03-26T15:01:25.344Z,8.55
2023-03-26T15:04:33.432Z,8.58
2023-03-26T15:07:38.340Z,8.55
2023-03-26T15:10:16.957Z,8.49
2023-03-26T15:13:19.806Z,8.37
2023-03-26T15:16:12.390Z,8.37
2023-03-26T15:19:13.438Z,8.32
2023-03-26T15:22:10.718Z,8.36
2023-03-26T15:25:10.953Z,8.39
2023-03-26T15:27:57.579Z,8.36
2023-03-26T15:31:06.701Z,8.34
2023-03-26T15:34:00.582Z,8.24
2023-03-26T15:36:44.790Z,8.11
2023-03-26T15:39:12.138Z,8.09
2023-03-26T15:41:39.709Z,8.14
2023-03-26T15:44:43.779Z,8.15
2023-03-26T15:47:32.900Z,8.20
2023-03-26T15:50:14.408Z,8.27
2023-03-26T15:53:04.545Z,8.30
2023-03-26T15:55:40.391Z,8.17
2023-03-26T15:58:27.497Z,8.25
2023-03-26T16:01:04.380Z,8.11
2023-03-26T16:03:49.489Z,8.12
2023-03-26T16:06:22.769Z,8.15
2023-03-26T16:09:04.810Z,8.14
2023-03-26T16:11:51.010Z,8.14
2023-03-26T16:14:24.371Z,7.94
2023-03-26T16:16:58.120Z,7.93
2023-03-26T16:19:36.313Z,7.97
2023-03-26T16:22:07.798Z,7.95
2023-03-26T16:24:40.057Z,7.99
2023-03-26T16:27:32.267Z,8.03
2023-03-26T16:30:25.413Z,8.01
2023-03-26T16:32:56.373Z,8.09
2023-03-26T16:35:46.605Z,8.10
2023-03-26T16:38:16.291Z,8.05
2023-03-26T16:41:15.326Z,7.98
2023-03-26T16:44:10.692Z,7.99
2023-03-26T16:46:50.714Z,7.94
2023-03-26T16:49:26.828Z,7.89
2023-03-26T16:52:09.813Z,7.89
2023-03-26T16:55:04.302Z,7.89
2023-03-26T16:57:48.142Z,7.92
2023-03-26T17:00:23.720Z,7.98
2023-03-26T17:02:54.035Z,7.96
2023-03-26T17:05:37.975Z,7.97
2023-03-26T17:08:35.539Z,7.88
2023-03-26T17:11:28.229Z,7.78
2023-03-26T17:14:34.416Z,7.75
2023-03-26T17:17:23.452Z,7.77
2023-03-26T17:20:17.134Z,7.81
2023-03-26T17:23:28.724Z,7.71
2023-03-26T17:26:19.955Z,7.69
2023-03-26T17:29:02.080Z,7.67
2023-03-26T17:31:42.905Z,7.68
2023-03-26T17:34:31.943Z,7.62
2023-03-26T17:37:03.842Z,7.69
2023-03-26T17:39:40.538Z,7.61
2023-03-26T17:42:16.572Z,7.63
2023-03-26T17:45:03.747Z,7.58
2023-03-26T17:47:52.897Z,7.57
2023-03-26T17:50:30.376Z,7.59
2023-03-26T17:53:02.145Z,7.62
2023-03-26T17:55:32.575Z,7.62
2023-03-26T17:58:03.008Z,7.62
2023-03-26T18:00:30.762Z,7.60
2023-03-26T18:03:03.059Z,7.62
2023-03-26T18:05:31.358Z,7.62
2023-03-26T18:08:39.292Z,7.60
2023-03-26T18:11:12.527Z,7.54
2023-03-26T18:13:45.820Z,7.51
2023-03-26T18:16:17.865Z,7.47
2023-03-26T18:18:54.561Z,7.46
2023-03-26T18:21:24.740Z,7.32
2023-03-26T18:23:52.747Z,7.31
2023-03-26T18:26:31.702Z,7.29
2023-03-26T18:29:24.050Z,7.18
2023-03-26T18:31:57.856Z,7.12
2023-03-26T18:34:29.274Z,7.08
2023-03-26T18:37:03.080Z,7.06
2023-03-26T18:39:30.610Z,7.03
2023-03-26T18:41:58.469Z,7.01
2023-03-26T18:44:27.620Z,7.06
2023-03-26T18:46:55.529Z,7.01
2023-03-26T18:49:26.046Z,7.03
2023-03-26T18:51:57.218Z,7.07
2023-03-26T18:54:30.970Z,7.09
2023-03-26T18:57:15.152Z,7.10
2023-03-26T18:59:45.674Z,7.10
2023-03-26T19:02:14.654Z,7.10
2023-03-26T19:04:46.777Z,7.07
2023-03-26T19:07:19.137Z,7.04
2023-03-26T19:09:46.755Z,7.04
2023-03-26T19:12:23.210Z,7.05
2023-03-26T19:14:55.417Z,7.03
2023-03-26T19:17:26.748Z,7.01
2023-03-26T19:19:57.578Z,6.85
2023-03-26T19:22:25.818Z,6.76
2023-03-26T19:24:59.617Z,6.80
2023-03-26T19:27:27.569Z,6.89
2023-03-26T19:29:55.058Z,6.85
2023-03-26T19:32:34.783Z,6.82
2023-03-26T19:35:04.473Z,6.77
2023-03-26T19:37:32.748Z,6.81
2023-03-26T19:40:07.728Z,6.77
2023-03-26T19:42:43.434Z,6.76
2023-03-26T19:45:34.636Z,6.72
2023-03-26T19:48:14.364Z,6.76
2023-03-26T19:50:46.090Z,6.77
2023-03-26T19:53:18.804Z,6.72
2023-03-26T19:56:13.551Z,6.67
2023-03-26T19:58:42.304Z,6.61
2023-03-26T20:01:23.867Z,6.45
2023-03-26T20:03:55.980Z,6.30
2023-03-26T20:06:33.944Z,6.13
2023-03-26T20:09:05.903Z,6.02
2023-03-26T20:11:38.534Z,5.99
2023-03-26T20:14:20.002Z,5.95
2023-03-26T20:16:47.536Z,5.94
2023-03-26T20:19:15.499Z,5.91
2023-03-26T20:21:44.530Z,5.84
2023-03-26T20:24:17.588Z,5.79
2023-03-26T20:26:48.343Z,5.77
2023-03-26T20:29:16.660Z,5.82
2023-03-26T20:31:44.441Z,5.78
2023-03-26T20:34:22.721Z,5.73
2023-03-26T20:37:01.362Z,5.72
2023-03-26T20:39:29.402Z,5.67
2023-03-26T20:41:57.162Z,5.64
2023-03-26T20:44:26.923Z,5.55
2023-03-26T20:46:56.636Z,5.52
2023-03-26T20:49:25.158Z,5.44
2023-03-26T20:51:52.890Z,5.39
2023-03-26T20:54:23.764Z,5.43
2023-03-26T20:56:52.571Z,5.43
2023-03-26T20:59:27.072Z,5.52
2023-03-26T21:01:57.909Z,5.57
2023-03-26T21:04:26.752Z,5.51
2023-03-26T21:07:00.251Z,5.58
2023-03-26T21:09:35.434Z,5.65
2023-03-26T21:12:09.819Z,5.66
2023-03-26T21:14:41.931Z,5.65
2023-03-26T21:17:20.778Z,5.64
2023-03-26T21:19:49.377Z,5.63
2023-03-26T21:23:15.565Z,5.64
2023-03-26T21:26:06.667Z,5.67
2023-03-26T21:28:47.728Z,5.76
2023-03-26T21:31:22.550Z,5.78
2023-03-26T21:33:51.224Z,5.81
2023-03-26T21:36:23.135Z,5.84
2023-03-26T21:38:51.138Z,5.85
2023-03-26T21:41:24.488Z,5.83
2023-03-26T21:43:51.984Z,5.89
2023-03-26T21:46:20.097Z,5.96
2023-03-26T21:48:48.009Z,6.06
2023-03-26T21:51:19.342Z,6.18
2023-03-26T21:53:47.234Z,6.13
2023-03-26T21:56:33.542Z,6.02
2023-03-26T21:59:38.189Z,6.12
2023-03-26T22:02:33.385Z,6.16
2023-03-26T22:05:20.048Z,6.01
2023-03-26T22:07:53.410Z,5.85
2023-03-26T22:10:21.679Z,5.77
2023-03-26T22:12:49.854Z,5.72
2023-03-26T22:15:18.616Z,5.70
2023-03-26T22:17:54.077Z,5.69
2023-03-26T22:20:25.297Z,5.66
2023-03-26T22:22:53.524Z,5.61
2023-03-26T22:25:22.499Z,5.63
2023-03-26T22:27:51.231Z,5.60
2023-03-26T22:30:20.908Z,5.54
2023-03-26T22:32:49.064Z,5.46
2023-03-26T22:35:16.797Z,5.41
2023-03-26T22:37:44.422Z,5.45
2023-03-26T22:40:15.394Z,5.38
2023-03-26T22:42:42.890Z,5.43
2023-03-26T22:45:11.417Z,5.42
2023-03-26T22:47:39.227Z,5.37
2023-03-26T22:50:08.978Z,5.33
2023-03-26T22:52:37.147Z,5.20
2023-03-26T22:55:05.455Z,5.12
2023-03-26T22:57:33.613Z,5.15
2023-03-26T23:00:15.039Z,5.06
2023-03-26T23:02:45.123Z,5.10
2023-03-26T23:05:14.131Z,5.03
2023-03-26T23:07:42.660Z,5.02
2023-03-26T23:10:11.365Z,5.00
2023-03-26T23:13:28.758Z,5.07
2023-03-26T23:15:57.252Z,5.04
2023-03-26T23:18:25.017Z,5.03
2023-03-26T23:20:55.799Z,4.95
2023-03-26T23:23:34.417Z,4.99
2023-03-26T23:26:04.675Z,5.03
2023-03-26T23:28:33.605Z,4.90
2023-03-26T23:31:04.545Z,4.82
2023-03-26T23:33:35.581Z,4.80
2023-03-26T23:36:07.537Z,4.78
2023-03-26T23:38:43.700Z,4.81
2023-03-26T23:41:15.872Z,4.85
2023-03-26T23:43:53.413Z,4.81
2023-03-26T23:46:34.922Z,4.94
2023-03-26T23:49:03.646Z,4.95
2023-03-26T23:51:32.680Z,4.88
2023-03-26T23:54:00.793Z,4.91
2023-03-26T23:56:29.988Z,4.90
2023-03-26T23:58:59.273Z,5.00
